空港情報

日本の空港の気象及び、管制情報です。
気象情報はより詳細な情報が取得できる「AVIATION WEATER CENTER」 から取得しているため、VATSIMの気象情報と若干のタイムラグが生じることがあります。

VRCのフィールド設定用空港一覧はこちらをご覧ください。

RJCG Sapporo Control

RJCW / Wakkanai
VMC

NO RADAR

RADIO

08/26 2200x45

民間 civil

5000

200@19G29KT

29.76

RJCW 290623Z 20019G29KT 5000 -SHRA BR FEW003 SCT005 BKN006 17/15 Q1008 RMK 1ST003 4ST005 7ST006 A2978

RJER / Rishiri

NO RADAR

REMOTE

25/07 1800x45

民間 civil

過去5時間に発表されたMETARがありません。

RJEB / Monbetsu
VMC

NO RADAR

REMOTE

32/14 2000x45

民間 civil

9999

090@4KT

29.82

RJEB 290600Z 09004KT 9999 FEW030 SCT040 BKN070 19/15 Q1010

RJCM / Memanbetsu
VMC

NO RADAR

TOWER

36/18 2500x45

民間 civil

9999

050@4KT

29.82

RJCM 290700Z 05004KT 020V090 9999 FEW040 BKN050 22/14 Q1010

RJEC / Asahikawa
VMC

NO RADAR

TOWER

34/16 2500x60

民間 civil

9999

170@6KT

29.88

RJEC 290700Z 17006KT 9999 FEW010 SCT020 BKN030 20/16 Q1012

RJCN / Nakashibetsu
VMC

NO RADAR

RADIO

08/26 2000x45

民間 civil

9999

180@10KT

29.85

RJCN 290600Z 18010KT 9999 FEW030 BKN/// 24/14 Q1011

RJCK / Kushiro
IMC

NO RADAR

TOWER

17/35 2500x45

民間 civil

3000

190@8KT

29.88

RJCK 290700Z 19008KT 3000 R17/P2000N BCFG BR FEW001 SCT003 BKN004 11/10 Q1012

RJCO / Sapporo

RJCO_APP

TOWER

14/32 1500x30

共用 dual

過去5時間に発表されたMETARがありません。

RJCJ / Chitose

RJCC_APP

TOWER

36R/18L 3000x60
36L/18R 2700x45

自衛隊 military

過去5時間に発表されたMETARがありません。

RJCC / NewChitose
VMC

RJCC_APP

TOWER

01L/19R 3000x60
01R/19L 3000x60

民間 civil

9999

150@11KT

29.85

RJCC 290700Z 15011KT 9999 FEW015 20/17 Q1011

RJCB / Obihiro
VMC

NO RADAR

TOWER

35/17 2500x45

民間 civil

9999

160@4KT

29.85

RJCB 290700Z 16004KT 9999 FEW030 21/15 Q1011

RJEO / Okushiri

NO RADAR

REMOTE

12/30 1500x45

民間 civil

過去5時間に発表されたMETARがありません。

RJCH / Hakodate
VMC

RJCH_APP

TOWER

12/30 3000x45

民間 civil

9999

160@3KT

29.88

RJCH 290700Z 16003KT 100V230 9999 FEW030 20/15 Q1012

RJSA / Aomori
VMC

NO RADAR

TOWER

24/06 3000x60

民間 civil

9999

060@6KT

29.91

RJSA 290700Z 06006KT 9999 FEW030 23/16 Q1013

RJSO / Ominato

RJSM_APP

TOWER

04/22 600x45

自衛隊 military

過去5時間に発表されたMETARがありません。

RJSM / Misawa

RJSM_APP

TOWER

10/28 3050x45

共用 dual

過去5時間に発表されたMETARがありません。

RJSH / Hachinohe

RJSM_APP

TOWER

25/07 2250x45

自衛隊 military

過去5時間に発表されたMETARがありません。

RJSK / Akita
VMC

NO RADAR

TOWER

10/28 2500x60

民間 civil

9999

310@6KT

29.91

RJSK 290700Z 31006KT CAVOK 26/13 Q1013

RJSI / Hanamaki
VMC

NO RADAR

RADIO

20/02 2500x45

民間 civil

9999

220@6KT

29.88

RJSI 290600Z 22006KT 190V260 CAVOK 29/11 Q1012

RJSR / Odate-Noshiro
VMC

NO RADAR

REMOTE

11/29 2000x45

民間 civil

9999

300@7KT

29.91

RJSR 290600Z 30007KT 260V330 9999 FEW030 26/12 Q1013

RJTG Tokyo Control

RJSY / Shonai
VMC

NO RADAR

RADIO

09/27 2000x45

民間 civil

9999

310@5KT

29.91

RJSY 290600Z 31005KT 280V350 9999 FEW040 BKN/// 24/15 Q1013

RJSC / Yamagata
VMC

NO RADAR

RADIO

01/19 2000x45

民間 civil

9999

350@12KT

29.88

RJSC 290600Z 35012KT 320V020 9999 FEW045 BKN/// 29/16 Q1012

RJST / Matsushima

RJSS_APP

TOWER

07/25 2071x46
15/33 1500x46

自衛隊 military

過去5時間に発表されたMETARがありません。

RJSS / Sendai
IMC

RJSS_APP

TOWER

27/09 3000x45
12/30 1200x45

民間 civil

7000

160@7KT

29.91

RJSS 290700Z 16007KT 130V190 7000 FEW001 SCT003 BKN004 20/18 Q1013

RJSD / Sado

NO RADAR

REMOTE

10/28 890x25

民間 civil

過去5時間に発表されたMETARがありません。

RJSN / Niigata
VMC

RJSN_APP

TOWER

10/28 2500x45
04/22 1314x45

民間 civil

9999

020@8KT

29.88

RJSN 290700Z 02008KT 9999 FEW040 BKN/// 24/19 Q1012

RJSF / Fukushima
VMC

NO RADAR

RADIO

01/19 2500x60

民間 civil

9999

230@8KT

29.94

RJSF 290700Z 23008KT 200V280 9999 FEW030 SCT/// 28/19 Q1014

RJAH / Ibaraki/Hyakuri
VMC

RJAH_APP

TOWER

03L/21R 2700x45
03R/21L 2700x45

共用 dual

9999

180@7KT

29.88

RJAH 290700Z 18007KT 130V230 9999 FEW025 BKN250 28/19 Q1012

RJTT / Tokyo
VMC

RJTT_APP

TOWER

34LR/16RL 3000x60
04/22&05/23 2500x60

民間 civil

9999

170@11KT

29.91

RJTT 290700Z 17011KT 9999 FEW030 SCT180 BKN/// 28/20 Q1013 NOSIG

RJAA / Narita
VMC

RJTT_APP

TOWER

34L/16R 4000x60
34R/16L 2500x60

民間 civil

9999

150@9KT

29.91

RJAA 290700Z 15009KT 9999 FEW025 BKN/// 27/21 Q1013 NOSIG

RJTL / Shimofusa

RJTT_APP

TOWER

19/01 2250x45

自衛隊 military

過去5時間に発表されたMETARがありません。

RJTE / Tateyama

RJTT_APP

TOWER

09/27 300x45

自衛隊 military

過去5時間に発表されたMETARがありません。

RJTO / Oshima
VMC

NO RADAR

RADIO

03/21 1800x45

民間 civil

9999

230@4KT

29.94

RJTO 290600Z 23004KT 180V260 9999 FEW015 SCT150 BKN/// 25/21 Q1014

RJTK / Kisarazu

NO RADAR

TOWER

02/20 1830x45

自衛隊 military

過去5時間に発表されたMETARがありません。

RJAN / Niijima

NO RADAR

REMOTE

11/29 800x25

自衛隊 military

過去5時間に発表されたMETARがありません。

RJAZ / Kozushima

NO RADAR

REMOTE

11/29 800x25

民間 civil

過去5時間に発表されたMETARがありません。

RJTH / Hachijojima

NO RADAR

RADIO

26/08 2000x45

民間 civil

過去5時間に発表されたMETARがありません。

RJTF / Chofu
VMC

NO RADAR

Flight Service

35/17 800x30

民間 civil

9999

200@8KT

29.91

RJTF 290600Z 20008KT 160V240 9999 FEW030 BKN170 BKN/// 28/18 Q1013

RJTQ / Miyake

NO RADAR

REMOTE

02/20 1200x30

民間 civil

過去5時間に発表されたMETARがありません。

RJTC / Tachikawa

NO RADAR

TOWER

01/19 900x45

自衛隊 military

過去5時間に発表されたMETARがありません。

RJTA / Atsugi

NO RADAR

TOWER

01/19 2438x45

自衛隊 military

過去5時間に発表されたMETARがありません。

RJTU / Utsunomiya
VMC

RJTY_APP

TOWER

01/19 1700x45

自衛隊 military

5000

140@4KT

29.97

RJTU 290220Z 14004KT 080V210 5000 BR FEW015 SCT020 BKN035 26/20 Q1015 RMK 1SC015 3SC020 5SC035 A2999

RJTJ / Iruma

RJTY_APP

TOWER

17/35 2000x45

自衛隊 military

過去5時間に発表されたMETARがありません。

RJTY / Yokota
VMC

RJTY_APP

TOWER

18/36 3353x60

自衛隊 military

9999

180@11KT

29.93

RJTY 290658Z AUTO 18011KT 10SM CLR 28/19 A2993 RMK AO2 SLP132 T02760193

RJAF / Matsumoto
VMC

NO RADAR

RADIO

18/36 2000x45

民間 civil

9999

160@8KT

29.94

RJAF 290600Z 16008KT 140V200 9999 VCSH FEW050 SCT090 BKN/// 28/17 Q1014

RJNS / Shizuoka
VMC

NO RADAR

RADIO

30/12 2500x60

民間 civil

9999

210@6KT

29.94

RJNS 290700Z 21006KT 9999 FEW025 SCT150 BKN/// 25/21 Q1014

RJNY / Yaizu-Shizuhama
VMC

NO RADAR

TOWER

27/09 1500x45

自衛隊 military

9999

190@8KT

29.91

RJNY 290638Z 19008KT 9999 FEW025 SCT100 BKN150 25/19 Q1013 RMK 1CU025 4AC100 7AS150 A2994

RJNH / Hamamatsu

RJNH_APP

TOWER

09/27 2550x60

自衛隊 military

過去5時間に発表されたMETARがありません。

RJGG / Chubu
VMC

RJGG_APP

TOWER

36/18 3500x60

民間 civil

9999

170@11KT

29.91

RJGG 290700Z 17011KT 9999 FEW020 BKN120 25/21 Q1013 NOSIG

RJNA / Nagoya

RJGG_APP

TOWER

34/16 2740x45

民間 civil

過去5時間に発表されたMETARがありません。

RJNG / Gifu
VMC

RJGG_APP

TOWER

28/10 2710x46

自衛隊 military

9999

230@4KT

29.91

RJNG 290618Z 23004KT 150V300 9999 FEW025 SCT035 BKN150 28/18 Q1013 RMK 1CU025 3CU035 6AC150 A2993

RJOE / Akeno
VMC

RJOE_APP

TOWER

13/31 500x30
04/22 500x30

自衛隊 military

9999

080@6KT

29.97

RJOE 290414Z 08006KT 9999 FEW025 SCT120 BKN230 26/20 Q1015 RMK 1CU025 3AC120 7CI230 A2997

RJNK / Komatsu
VMC

RJNK_APP

TOWER

06/24 2700x45

共用 dual

9999

320@3KT

29.91

RJNK 290700Z 32003KT 250V360 9999 FEW030CB BKN230 26/18 Q1013

RJNW / Noto
VMC

NO RADAR

RADIO

25/07 2000x45

民間 civil

9999

000@2KT

29.91

RJNW 290600Z VRB02KT 9999 FEW025 SCT030 BKN/// 27/20 Q1013

RJNT / Toyama
VMC

NO RADAR

TOWER

20/02 2000x45

民間 civil

9999

360@4KT

29.88

RJNT 290700Z 36004KT 320V030 9999 VCSH FEW020 FEW030CB BKN040 BKN/// 28/20 Q1012

RJNF / Fukui

NO RADAR

REMOTE

18/36 1200x30

民間 civil

過去5時間に発表されたMETARがありません。

RJBD / Nanki-Shirahama
VMC

NO RADAR

RADIO

15/33 2000x45

民間 civil

9999

190@4KT

29.94

RJBD 290600Z 19004KT 140V230 9999 FEW008 SCT090 BKN/// 24/22 Q1014

RJOY / Yao
VMC

RJBB_APP

TOWER

27/09 1490x45
13/31 1200x30

民間 civil

9999

300@7KT

29.91

RJOY 290600Z 30007KT 250V350 9999 FEW008 SCT030 BKN100 27/19 Q1013

RJOO / Osaka
VMC

RJBB_APP

TOWER

32L/14R 3000x60
32R/14L 1830x45

民間 civil

9999

220@6KT

29.91

RJOO 290700Z 22006KT 160V260 9999 FEW030 SCT050 BKN100 27/19 Q1013

RJOB / Okayama
VMC

RJBB_APP

TOWER

07/25 3000x45

民間 civil

9999

150@3KT

29.91

RJOB 290700Z 15003KT 100V190 9999 FEW015 SCT040 BKN/// 25/21 Q1013

RJBB / Kansai
VMC

RJBB_APP

TOWER

06R/24L 3500x60
06L/24R 4000x60

民間 civil

9999

230@10KT

29.91

RJBB 290700Z 23010KT 9999 FEW010 SCT090 BKN/// 25/22 Q1013 NOSIG

RJBE / Kobe
VMC

RJBB_APP

TOWER

09/27 2500x60

民間 civil

9999

260@7KT

29.94

RJBE 290600Z 26007KT 9999 FEW015 BKN090 24/23 Q1014

RJBT / Tajima
VMC

NO RADAR

REMOTE

01/19 1200x30

民間 civil

9999

160@6KT

29.91

RJBT 290600Z 16006KT 9999 FEW020 SCT030 BKN090 28/21 Q1013

RJOR / Tottori
VMC

NO RADAR

RADIO

10/28 2000x45

民間 civil

9999

150@8KT

29.88

RJOR 290600Z 15008KT 9999 FEW030 SCT150 BKN/// 28/20 Q1012

RJNO / Oki

NO RADAR

REMOTE

07/25 2000x45

民間 civil

過去5時間に発表されたMETARがありません。

RJOH / Miho
VMC

RJOH_APP

TOWER

25/07 2500x45

共用 dual

9999

050@7KT

29.88

RJOH 290700Z 05007KT 9999 -SHRA FEW010 SCT030 FEW030TCU BKN060 24/21 Q1012

RJOC / Izumo
VMC

RJOH_APP

RADIO

07/25 2000x45

共用 dual

9999

360@7KT

29.88

RJOC 290700Z 36007KT 9999 -SHRA FEW008 BKN030 BKN050 25/22 Q1012

RJDG Fukuoka Control

RJOT / Takamatsu
VMC

RJBB_APP

TOWER

26/08 2500x60

民間 civil

5000

060@5KT

29.91

RJOT 290700Z 06005KT 5000 BR FEW001 SCT006 BKN010 24/24 Q1013

RJOK / Kochi
VMC

RJBB_APP

TOWER

32/14 2500x45

民間 civil

9999

190@5KT

29.91

RJOK 290700Z 19005KT 9999 -SHRA FEW007 SCT030 BKN040 24/22 Q1013

RJOS / Tokushima
VMC

RJOS_APP

TOWER

29/11 2500x45

共用 dual

9999

150@6KT

29.94

RJOS 290334Z 15006KT 9999 -SHRA FEW006 SCT020 BKN080 23/22 Q1014 RMK 1ST006 4CU020 7AC080 A2996

RJOA / Hiroshima
VMC

RJOA_APP

TOWER

10/28 3000x60

民間 civil

9999

000@2KT

29.94

RJOA 290700Z VRB02KT 9999 FEW015 BKN025 BKN045 24/21 Q1014

RJBH / Hiroshimanishi

NO RADAR

Flight Service

04/22 1800x45

民間 civil

過去5時間に発表されたMETARがありません。

RJOI / Iwakuni
VMC

RJOI_APP

TOWER

02/20 2440x60

共用 dual

9999

110@4KT

29.90

RJOI 290655Z 11004KT 9999 FEW030 BKN050 OVC120 25/22 A2990 RMK SLP123 T02500222

RJOM / Matsuyama
VMC

RJOI_APP

TOWER

14/32 2500x45

民間 civil

9999

340@5KT

29.88

RJOM 290700Z 34005KT 9999 FEW020 SCT100 BKN/// 25/22 Q1012

RJOZ / Ozuki
VMC

RJFZ_APP

TOWER

35/17 1201x61
12/30 899x46

自衛隊 military

9000

140@7KT

29.91

RJOZ 290236Z 14007KT 9000 FEW006 SCT010 BKN070 25/23 Q1013 RMK 1ST006 4ST010 7AC070 A2994

RJOF / Hofu
VMC

RJFZ_APP

TOWER

30/12 1180x60
01/19 1480x45

自衛隊 military

9999

100@8KT

29.88

RJOF 290530Z 10008KT 070V130 9999 -SHRA FEW008 SCT010 BKN015 25/23 Q1012 RMK 1ST008 3ST010 5CU015 A2991

RJDC / Yamaguchi-Ube
VMC

RJFZ_APP

RADIO

07/25 2500x45

民間 civil

9999

070@10KT

29.88

RJDC 290600Z 07010KT 9999 -RA FEW004 SCT006 BKN008 24/23 Q1012

RJFR / Kitakyushu
VMC

RJFZ_APP

TOWER

18/36 2500x60

民間 civil

8000

070@8KT

29.85

RJFR 290700Z 07008KT 8000 FEW004 BKN005 BKN010 24/22 Q1011

RJFZ / Tsuiki

RJFZ_APP

TOWER

25/07 2399x46

自衛隊 military

過去5時間に発表されたMETARがありません。

RJOW / Iwami
IMC

NO RADAR

REMOTE

11/29 2000x45

民間 civil

1500

000@2KT

29.88

RJOW 290641Z VRB02KT 1500 R11/0900VP2000D +SHRA BR FEW004 SCT015 BKN020 23/22 Q1012 RMK 1ST004 4CU015 5CU020 A2991

RJDT / Tsushima
VMC

NO RADAR

REMOTE

32/14 1900x45

民間 civil

2000

170@4KT

29.88

RJDT 290622Z 17004KT 130V230 2000 SHRA BR FEW001 SCT002 BKN015 21/21 Q1012 RMK 1ST001 4ST002 5CU015 A2989

RJFF / Fukuoka
VMC

RJFF_APP

TOWER

16/34 2800x60

民間 civil

9999

290@5KT

29.85

RJFF 290700Z 29005KT 270V330 9999 FEW025 SCT060 BKN080 26/21 Q1011

RJFS / Saga
VMC

RJFF_APP

RADIO

29/11 2000x45

民間 civil

9999

190@6KT

29.85

RJFS 290700Z 19006KT 150V220 9999 FEW030 SCT080 BKN/// 28/25 Q1011

RJFA / Ashiya

RJFF_APP

TOWER

12/30 1640x46

自衛隊 military

過去5時間に発表されたMETARがありません。

RJDB / Iki

RJFF_APP

REMOTE

20/02 1200x30

民間 civil

過去5時間に発表されたMETARがありません。

RJFO / Oita
VMC

RJFO_APP

TOWER

01/19 3000x45

民間 civil

9999

080@3KT

29.85

RJFO 290700Z 08003KT 030V130 9999 FEW003 SCT005 BKN006 24/23 Q1011

RJFU / Nagasaki
VMC

RJFU_APP

TOWER

32/14 3000x60

民間 civil

9999

150@9KT

29.85

RJFU 290700Z 15009KT 9999 FEW015 BKN020 28/24 Q1011

RJDU / Omura

RJFU_APP

TOWER

18/36 1200x30

自衛隊 military

過去5時間に発表されたMETARがありません。

RJFE / Fukue
IMC

NO RADAR

RADIO

03/21 2000x45

民間 civil

4000

180@5KT

29.85

RJFE 290535Z 18005KT 130V210 4000 BR FEW002 SCT003 BKN004 24/24 Q1011 RMK 1ST002 4ST003 5ST004 A2988

RJDO / Ojika

NO RADAR

REMOTE

03/21 800x30

民間 civil

過去5時間に発表されたMETARがありません。

RJDK / Kamigoto

NO RADAR

REMOTE

17/35 800x30

民間 civil

過去5時間に発表されたMETARがありません。

RJDA / Amakusa

NO RADAR

Flight Service

31/13 1000x30

民間 civil

過去5時間に発表されたMETARがありません。

RJFT / Kumamoto
VMC

RJFT_APP

TOWER

07/25 3000x45

民間 civil

9999

230@7KT

29.88

RJFT 290700Z 23007KT 200V260 9999 FEW025 BKN030 FEW030CB BKN/// 30/23 Q1012

RJFN / Nyutabaru

RJFM_APP

TOWER

28/10 2701x46

自衛隊 military

過去5時間に発表されたMETARがありません。

RJFM / Miyazaki
VMC

RJFM_APP

TOWER

27/09 2500x45

民間 civil

9000

130@9KT

29.88

RJFM 290700Z 13009KT 9000 FEW003 SCT005 BKN/// 26/24 Q1012

RJFK / Kagoshima
VMC

RJFK_APP

TOWER

34/16 3000x45

民間 civil

9999

200@6KT

29.91

RJFK 290700Z 20006KT 150V240 9999 VA FEW020 SCT030 BKN/// 29/22 Q1013

RJFY / Kanoya
VMC

RJFY_APP

TOWER

26L/08R 2250x45
26R/08L 1200x40

自衛隊 military

8000

080@4KT

29.91

RJFY 290405Z 08004KT 8000 SCT012 SCT150 BKN230 28/25 Q1013 RMK 4CU012 3AC150 A2994

RJFG / Tanegashima
VMC

NO RADAR

RADIO

31/13 2000x45

民間 civil

9999

170@10KT

29.91

RJFG 290600Z 17010KT 9999 FEW003 SCT005 27/26 Q1013

RJFC / Yakushima

NO RADAR

REMOTE

14/32 1500x45

民間 civil

過去5時間に発表されたMETARがありません。

RORG Naha Control

ROAH / Naha
VMC

ROAH_APP

TOWER

36/18 3000x45

共用 dual

9999

120@12KT

29.79

ROAH 290700Z 12012KT 070V140 9999 VCSH SCT020 SCT030 BKN/// 30/24 Q1009

RORA / Aguni

ROAH_APP

REMOTE

01/19 800x25

民間 civil

過去5時間に発表されたMETARがありません。

ROKJ / Kumejima

ROAH_APP

REMOTE

03/21 2000x45

民間 civil

過去5時間に発表されたMETARがありません。

RODN / Kadena
VMC

ROAH_APP

TOWER

05L/23R 3688x91
05R/23L 3688x61

自衛隊 military

9999

110@15KT

29.82

RODN 290656Z AUTO 11015KT 10SM BKN017 BKN025 30/25 A2982 RMK AO2 CIG 017V025 BKN017 V SCT SLP103 T02980253 $

ROTM / Futenma
VMC

ROAH_APP

TOWER

06/24 2740x45

自衛隊 military

9999

120@14G19KT

29.84

ROTM 290558Z 12014G19KT 9999 SCT015 BKN030 BKN200 29/19 A2984 RMK SLP089 STNPR29550 T02940194 10300 20289 57007

RORS / Shimojishima
VMC

RORS_APP

TOWER

17/35 3000x60

民間 civil

9999

220@9KT

29.82

RORS 290600Z 22009KT 9999 FEW020 31/25 Q1010

ROMY / Miyako
VMC

RORS_APP

TOWER

04/22 2000x45

民間 civil

9999

000@1KT

29.82

ROMY 290600Z VRB01KT 9999 SCT025 32/26 Q1010

ROIG / New Ishigaki
VMC

RORS_APP

TOWER

22/04 2000x45

民間 civil

9999

190@9KT

29.82

ROIG 290700Z 19009KT 9999 FEW018 31/25 Q1010

RORT / Tarama

RORS_APP

REMOTE

36/18 1500x45

民間 civil

過去5時間に発表されたMETARがありません。

RJKA / Amami
VMC

NO RADAR

RADIO

03/21 2000x45

民間 civil

9999

150@10KT

29.85

RJKA 290600Z 15010KT 9999 FEW010 BKN170 29/26 Q1011

RJKI / Kikai

NO RADAR

REMOTE

07/25 1200x30

民間 civil

過去5時間に発表されたMETARがありません。

RJKN / Tokunoshima

NO RADAR

REMOTE

19/01 2000x45

民間 civil

過去5時間に発表されたMETARがありません。

RJKB / Okierabu

NO RADAR

REMOTE

04/22 1350x45

民間 civil

過去5時間に発表されたMETARがありません。

RORY / Yoron
VMC

NO RADAR

REMOTE

32/14 1320x30

民間 civil

0000

120@19G29KT

29.82

RORY 290619Z AUTO 12019G29KT //// // ////// 29/26 Q1010 RMK A2983

RORK / Kitadaito

NO RADAR

REMOTE

03/21 1500x45

民間 civil

過去5時間に発表されたMETARがありません。

ROMD / Minami-daito

NO RADAR

REMOTE

02/20 1500x45

民間 civil

過去5時間に発表されたMETARがありません。

ROYN / Yonaguni
VMC

NO RADAR

REMOTE

26/08 2000x45

民間 civil

9999

170@11KT

29.82

ROYN 290600Z AUTO 17011KT 130V210 9999 FEW016 32/26 Q1010

RORH / Hateruma

NO RADAR

REMOTE

02/20 800x25

民間 civil

過去5時間に発表されたMETARがありません。

ROKR / Kerama

NO RADAR

REMOTE

02/20 800x25

民間 civil

過去5時間に発表されたMETARがありません。